createdAt,value
2018-12-18T00:00:27.645Z,54.70
2018-12-18T00:02:57.002Z,51.48
2018-12-18T00:05:31.886Z,54.98
2018-12-18T00:08:01.761Z,52.93
2018-12-18T00:10:36.356Z,51.55
2018-12-18T00:13:05.721Z,53.35
2018-12-18T00:15:35.077Z,48.02
2018-12-18T00:18:04.689Z,51.02
2018-12-18T00:20:34.176Z,46.20
2018-12-18T00:23:03.549Z,51.88
2018-12-18T00:25:33.049Z,49.98
2018-12-18T00:28:02.505Z,47.25
2018-12-18T00:30:31.898Z,44.40
2018-12-18T00:33:01.293Z,44.25
2018-12-18T00:35:30.659Z,41.40
2018-12-18T00:38:00.255Z,42.43
2018-12-18T00:40:29.730Z,42.95
2018-12-18T00:42:59.112Z,32.08
2018-12-18T00:45:28.501Z,35.58
2018-12-18T00:47:57.853Z,35.88
2018-12-18T00:50:27.224Z,35.23
2018-12-18T00:52:56.606Z,36.05
2018-12-18T00:55:25.981Z,32.48
2018-12-18T00:57:55.333Z,37.10
2018-12-18T01:00:24.826Z,42.10
2018-12-18T01:02:54.168Z,36.60
2018-12-18T01:05:23.634Z,39.58
2018-12-18T01:07:53.442Z,31.95
2018-12-18T01:10:23.252Z,35.20
2018-12-18T01:12:52.620Z,38.50
2018-12-18T01:15:26.373Z,33.10
2018-12-18T01:17:55.852Z,30.72
2018-12-18T01:20:25.239Z,34.08
2018-12-18T01:22:54.717Z,33.48
2018-12-18T01:25:24.220Z,32.53
2018-12-18T01:27:53.594Z,26.57
2018-12-18T01:30:22.951Z,29.15
2018-12-18T01:32:52.437Z,26.75
2018-12-18T01:35:22.053Z,28.50
2018-12-18T01:37:51.515Z,30.12
2018-12-18T01:40:20.993Z,29.35
2018-12-18T01:42:50.351Z,26.30
2018-12-18T01:45:19.932Z,31.57
2018-12-18T01:47:49.396Z,30.12
2018-12-18T01:50:18.709Z,31.05
2018-12-18T01:52:48.077Z,26.45
2018-12-18T01:55:17.437Z,26.00
2018-12-18T01:57:46.977Z,28.62
2018-12-18T02:00:16.546Z,26.20
2018-12-18T02:02:45.897Z,26.42
2018-12-18T02:05:15.398Z,28.60
2018-12-18T02:07:44.711Z,26.15
2018-12-18T02:10:14.280Z,30.23
2018-12-18T02:12:43.642Z,30.55
2018-12-18T02:15:13.082Z,26.82
2018-12-18T02:17:42.557Z,29.02
2018-12-18T02:20:12.024Z,31.50
2018-12-18T02:22:41.389Z,30.95
2018-12-18T02:25:10.805Z,26.97
2018-12-18T02:27:40.277Z,29.15
2018-12-18T02:30:10.570Z,27.67
2018-12-18T02:32:39.966Z,28.30
2018-12-18T02:35:09.430Z,31.20
2018-12-18T02:37:38.781Z,29.15
2018-12-18T02:40:08.288Z,30.57
2018-12-18T02:42:37.649Z,30.37
2018-12-18T02:45:07.249Z,25.40
2018-12-18T02:47:36.620Z,26.20
2018-12-18T02:50:06.854Z,26.65
2018-12-18T02:52:36.210Z,29.67
2018-12-18T02:55:05.622Z,28.20
2018-12-18T02:57:34.942Z,26.35
2018-12-18T03:00:04.819Z,23.18
2018-12-18T03:02:34.274Z,25.70
2018-12-18T03:05:03.773Z,24.67
2018-12-18T03:07:33.150Z,25.23
2018-12-18T03:10:02.505Z,28.32
2018-12-18T03:12:31.925Z,29.80
2018-12-18T03:15:01.406Z,26.27
2018-12-18T03:17:30.762Z,23.67
2018-12-18T03:20:00.137Z,25.25
2018-12-18T03:22:29.538Z,25.30
2018-12-18T03:24:58.993Z,24.65
2018-12-18T03:27:28.360Z,39.92
2018-12-18T03:29:57.773Z,31.02
2018-12-18T03:32:32.238Z,33.18
2018-12-18T03:35:01.602Z,35.13
2018-12-18T03:37:30.953Z,32.40
2018-12-18T03:40:00.378Z,29.75
2018-12-18T03:42:29.838Z,29.32
2018-12-18T03:44:59.205Z,29.25
2018-12-18T03:47:28.565Z,24.90
2018-12-18T03:49:58.172Z,27.77
2018-12-18T03:52:27.616Z,29.42
2018-12-18T03:54:56.977Z,28.50
2018-12-18T03:57:26.328Z,29.30
2018-12-18T03:59:55.728Z,26.55
2018-12-18T04:02:25.202Z,27.65
2018-12-18T04:04:54.581Z,29.85
2018-12-18T04:07:24.086Z,27.13
2018-12-18T04:09:53.446Z,27.58
2018-12-18T04:12:23.857Z,33.40
2018-12-18T04:14:53.252Z,32.55
2018-12-18T04:17:22.617Z,37.80
2018-12-18T04:19:52.091Z,41.77
2018-12-18T04:22:21.444Z,35.03
2018-12-18T04:24:50.822Z,77.40
2018-12-18T04:27:20.195Z,64.60
2018-12-18T04:29:49.553Z,49.93
2018-12-18T04:32:19.013Z,31.70
2018-12-18T04:34:48.406Z,30.27
2018-12-18T04:37:17.749Z,27.90
2018-12-18T04:39:47.106Z,23.25
2018-12-18T04:42:16.640Z,29.05
2018-12-18T04:44:45.998Z,29.15
2018-12-18T04:47:15.365Z,26.90
2018-12-18T04:49:44.836Z,31.57
2018-12-18T04:52:14.195Z,33.18
2018-12-18T04:54:43.595Z,28.10
2018-12-18T04:57:12.946Z,28.12
2018-12-18T04:59:42.420Z,23.90
2018-12-18T05:02:12.008Z,25.05
2018-12-18T05:04:41.277Z,26.73
2018-12-18T05:07:10.630Z,38.67
2018-12-18T05:09:40.113Z,86.42
2018-12-18T05:12:09.480Z,28.55
2018-12-18T05:14:38.866Z,31.48
2018-12-18T05:17:08.221Z,26.82
2018-12-18T05:19:37.572Z,29.55
2018-12-18T05:22:06.948Z,30.23
2018-12-18T05:24:36.316Z,50.00
2018-12-18T05:27:05.697Z,35.30
2018-12-18T05:29:35.054Z,25.85
2018-12-18T05:32:04.454Z,32.50
2018-12-18T05:34:33.824Z,45.70
2018-12-18T05:37:03.189Z,29.27
2018-12-18T05:39:32.646Z,28.00
2018-12-18T05:42:02.360Z,24.90
2018-12-18T05:44:31.705Z,21.70
2018-12-18T05:47:01.153Z,23.55
2018-12-18T05:49:30.921Z,25.97
2018-12-18T05:52:00.489Z,19.35
2018-12-18T05:54:29.853Z,21.27
2018-12-18T05:56:59.209Z,20.02
2018-12-18T05:59:28.564Z,17.57
2018-12-18T06:01:57.945Z,16.73
2018-12-18T06:04:27.398Z,17.10
2018-12-18T06:06:56.981Z,15.55
2018-12-18T06:09:26.340Z,19.73
2018-12-18T06:11:55.828Z,17.75
2018-12-18T06:14:25.217Z,20.52
2018-12-18T06:16:54.593Z,22.07
2018-12-18T06:19:23.966Z,24.90
2018-12-18T06:21:53.419Z,29.67
2018-12-18T06:24:22.801Z,27.80
2018-12-18T06:26:52.213Z,24.25
2018-12-18T06:29:21.580Z,41.08
2018-12-18T06:31:51.053Z,33.53
2018-12-18T06:34:20.493Z,35.75
2018-12-18T06:36:49.952Z,38.70
2018-12-18T06:39:19.313Z,35.33
2018-12-18T06:41:48.724Z,28.92
2018-12-18T06:44:18.073Z,26.15
2018-12-18T06:46:48.418Z,23.35
2018-12-18T06:49:17.760Z,23.90
2018-12-18T06:51:47.101Z,37.58
2018-12-18T06:54:16.568Z,35.25
2018-12-18T06:56:45.928Z,28.07
2018-12-18T06:59:15.412Z,25.70
2018-12-18T07:01:45.298Z,27.45
2018-12-18T07:04:14.852Z,23.90
2018-12-18T07:06:44.321Z,24.80
2018-12-18T07:09:13.661Z,29.07
2018-12-18T07:11:43.121Z,32.03
2018-12-18T07:14:12.441Z,33.20
2018-12-18T07:16:41.908Z,24.70
2018-12-18T07:19:11.262Z,25.35
2018-12-18T07:21:40.804Z,18.00
2018-12-18T07:24:14.012Z,20.35
2018-12-18T07:26:41.741Z,19.40
2018-12-18T07:29:11.105Z,19.12
2018-12-18T07:31:40.597Z,20.27
2018-12-18T07:34:10.164Z,21.95
2018-12-18T07:36:39.597Z,44.23
2018-12-18T07:39:09.373Z,25.68
2018-12-18T07:41:38.870Z,19.65
2018-12-18T07:44:08.350Z,16.42
2018-12-18T07:46:37.801Z,17.67
2018-12-18T07:49:07.169Z,23.32
2018-12-18T07:51:36.692Z,26.42
2018-12-18T07:54:06.069Z,24.10
2018-12-18T07:56:35.612Z,26.12
2018-12-18T07:59:04.978Z,27.57
2018-12-18T08:01:34.433Z,17.63
2018-12-18T08:04:03.804Z,14.40
2018-12-18T08:06:33.160Z,16.03
2018-12-18T08:09:02.514Z,15.20
2018-12-18T08:11:31.944Z,14.93
2018-12-18T08:14:01.322Z,17.10
2018-12-18T08:16:30.673Z,14.77
2018-12-18T08:19:00.016Z,16.10
2018-12-18T08:21:29.377Z,16.73
2018-12-18T08:23:58.854Z,29.97
2018-12-18T08:26:28.316Z,21.90
2018-12-18T08:28:57.863Z,21.30
2018-12-18T08:31:27.266Z,19.73
2018-12-18T08:33:56.646Z,18.43
2018-12-18T08:36:26.034Z,30.43
2018-12-18T08:38:55.536Z,36.20
2018-12-18T08:41:24.949Z,41.63
2018-12-18T08:43:54.298Z,43.27
2018-12-18T08:46:23.784Z,46.07
2018-12-18T08:48:53.145Z,24.57
2018-12-18T08:51:22.501Z,28.17
2018-12-18T08:53:51.951Z,22.33
2018-12-18T08:56:21.335Z,21.97
2018-12-18T08:58:50.709Z,26.57
2018-12-18T09:01:20.103Z,27.20
2018-12-18T09:03:49.450Z,30.00
2018-12-18T09:06:19.074Z,29.07
2018-12-18T09:08:48.430Z,26.80
2018-12-18T09:11:17.912Z,27.13
2018-12-18T09:13:47.385Z,38.70
2018-12-18T09:16:22.251Z,43.43
2018-12-18T09:18:51.706Z,22.77
2018-12-18T09:21:21.296Z,17.37
2018-12-18T09:23:50.777Z,17.97
2018-12-18T09:26:20.193Z,21.73
2018-12-18T09:28:49.645Z,22.70
2018-12-18T09:31:19.013Z,17.67
2018-12-18T09:33:48.481Z,27.70
2018-12-18T09:36:17.861Z,18.67
2018-12-18T09:38:52.565Z,30.67
2018-12-18T09:41:28.529Z,17.73
2018-12-18T09:44:29.642Z,23.23
2018-12-18T09:46:59.125Z,60.97
2018-12-18T09:49:28.485Z,142.67
2018-12-18T09:51:57.877Z,50.40
2018-12-18T09:54:27.312Z,76.47
2018-12-18T09:56:58.714Z,51.43
2018-12-18T09:59:28.193Z,49.50
2018-12-18T10:01:57.573Z,51.27
2018-12-18T10:04:26.924Z,34.33
2018-12-18T10:06:56.269Z,28.10
2018-12-18T10:09:25.701Z,27.03
2018-12-18T10:11:55.176Z,24.63
2018-12-18T10:14:24.521Z,24.20
2018-12-18T10:16:54.032Z,21.80
2018-12-18T10:19:23.891Z,19.47
2018-12-18T10:21:53.243Z,20.73
2018-12-18T10:24:22.738Z,28.10
2018-12-18T10:26:52.277Z,28.73
2018-12-18T10:29:21.633Z,28.10
2018-12-18T10:31:51.104Z,22.17
2018-12-18T10:34:20.550Z,22.13
2018-12-18T10:36:49.941Z,20.10
2018-12-18T10:39:19.389Z,20.87
2018-12-18T10:41:48.745Z,17.30
2018-12-18T10:44:18.090Z,18.83
2018-12-18T10:46:47.496Z,16.80
2018-12-18T10:49:16.838Z,18.87
2018-12-18T10:51:46.185Z,17.63
2018-12-18T10:54:15.557Z,25.23
2018-12-18T10:56:44.930Z,24.63
2018-12-18T10:59:14.321Z,21.13
2018-12-18T11:01:48.518Z,18.87
2018-12-18T11:04:17.882Z,19.07
2018-12-18T11:06:47.347Z,22.00
2018-12-18T11:09:17.329Z,20.27
2018-12-18T11:11:46.722Z,19.60
2018-12-18T11:14:16.183Z,18.23
2018-12-18T11:16:45.530Z,24.83
2018-12-18T11:19:14.992Z,22.10
2018-12-18T11:21:44.345Z,21.93
2018-12-18T11:24:13.694Z,20.83
2018-12-18T11:26:43.188Z,25.73
2018-12-18T11:29:12.521Z,25.63
2018-12-18T11:31:41.981Z,25.63
2018-12-18T11:34:11.388Z,20.77
2018-12-18T11:36:40.745Z,21.17
2018-12-18T11:39:10.813Z,22.53
2018-12-18T11:41:40.165Z,24.03
2018-12-18T11:44:09.645Z,20.90
2018-12-18T11:46:39.517Z,19.13
2018-12-18T11:49:08.878Z,20.47
2018-12-18T11:51:38.557Z,17.57
2018-12-18T11:54:08.130Z,19.87
2018-12-18T11:56:37.493Z,19.53
2018-12-18T11:59:06.833Z,24.30
2018-12-18T12:01:36.321Z,20.37
2018-12-18T12:04:05.676Z,23.37
2018-12-18T12:06:35.128Z,20.83
2018-12-18T12:09:06.840Z,16.87
2018-12-18T12:11:36.210Z,18.57
2018-12-18T12:14:05.617Z,17.97
2018-12-18T12:16:34.973Z,14.20
2018-12-18T12:19:04.704Z,14.63
2018-12-18T12:21:34.076Z,16.27
2018-12-18T12:24:03.565Z,14.80
2018-12-18T12:26:33.010Z,15.23
2018-12-18T12:29:02.600Z,16.50
2018-12-18T12:31:32.053Z,17.07
2018-12-18T12:34:01.536Z,15.93
2018-12-18T12:36:30.893Z,16.17
2018-12-18T12:39:00.336Z,15.73
2018-12-18T12:41:29.691Z,16.83
2018-12-18T12:43:59.058Z,18.70
2018-12-18T12:46:28.417Z,17.43
2018-12-18T12:48:59.931Z,19.47
2018-12-18T12:51:29.628Z,16.20
2018-12-18T12:53:58.973Z,16.90
2018-12-18T12:56:28.349Z,18.10
2018-12-18T12:58:57.809Z,15.60
2018-12-18T13:01:27.154Z,16.20
2018-12-18T13:03:56.520Z,18.67
2018-12-18T13:06:25.886Z,17.13
2018-12-18T13:08:55.329Z,27.37
2018-12-18T13:11:24.741Z,20.27
2018-12-18T13:13:54.095Z,26.20
2018-12-18T13:16:23.481Z,21.57
2018-12-18T13:18:53.136Z,25.43
2018-12-18T13:21:22.584Z,27.47
2018-12-18T13:23:52.045Z,28.57
2018-12-18T13:26:21.434Z,32.60
2018-12-18T13:28:50.786Z,27.30
2018-12-18T13:31:20.278Z,26.47
2018-12-18T13:33:49.641Z,25.00
2018-12-18T13:36:18.989Z,22.60
2018-12-18T13:38:48.429Z,22.03
2018-12-18T13:41:17.800Z,20.63
2018-12-18T13:43:47.250Z,30.23
2018-12-18T13:46:16.603Z,27.60
2018-12-18T13:48:45.953Z,22.23
2018-12-18T13:51:15.773Z,17.13
2018-12-18T13:53:46.704Z,17.80
2018-12-18T13:56:16.053Z,17.23
2018-12-18T13:58:45.405Z,17.90
2018-12-18T14:01:14.801Z,17.10
2018-12-18T14:03:44.145Z,18.70
2018-12-18T14:06:13.504Z,27.13
2018-12-18T14:08:42.854Z,54.67
2018-12-18T14:11:12.197Z,33.80
2018-12-18T14:13:41.539Z,30.23
2018-12-18T14:16:10.916Z,35.50
2018-12-18T14:18:40.261Z,34.17
2018-12-18T14:21:09.613Z,24.67
2018-12-18T14:23:38.965Z,18.93
2018-12-18T14:26:08.425Z,18.40
2018-12-18T14:28:37.785Z,20.57
2018-12-18T14:31:07.418Z,21.53
2018-12-18T14:33:36.875Z,23.07
2018-12-18T14:36:06.257Z,23.33
2018-12-18T14:38:35.629Z,21.40
2018-12-18T14:41:05.009Z,29.33
2018-12-18T14:43:34.520Z,36.77
2018-12-18T14:46:04.168Z,43.50
2018-12-18T14:48:33.519Z,97.30
2018-12-18T14:51:02.960Z,84.70
2018-12-18T14:53:32.356Z,42.40
2018-12-18T14:56:01.721Z,34.93
2018-12-18T14:58:31.077Z,25.33
2018-12-18T15:01:00.521Z,30.27
2018-12-18T15:03:29.863Z,32.60
2018-12-18T15:05:59.269Z,27.70
2018-12-18T15:08:28.637Z,27.37
2018-12-18T15:10:58.116Z,32.00
2018-12-18T15:13:29.927Z,25.17
2018-12-18T15:15:59.441Z,26.80
2018-12-18T15:18:28.802Z,21.77
2018-12-18T15:20:58.156Z,22.57
2018-12-18T15:23:27.540Z,20.70
2018-12-18T15:25:56.913Z,25.53
2018-12-18T15:28:26.373Z,23.97
2018-12-18T15:30:56.267Z,22.13
2018-12-18T15:33:25.616Z,21.47
2018-12-18T15:35:55.490Z,22.77
2018-12-18T15:38:24.856Z,22.57
2018-12-18T15:40:54.337Z,25.10
2018-12-18T15:43:23.888Z,23.73
2018-12-18T15:45:53.273Z,22.07
2018-12-18T15:48:22.553Z,25.23
2018-12-18T15:50:52.022Z,22.80
2018-12-18T15:53:21.773Z,28.43
2018-12-18T15:55:51.205Z,29.50
2018-12-18T15:58:20.715Z,24.33
2018-12-18T16:00:50.101Z,28.27
2018-12-18T16:03:19.457Z,28.77
2018-12-18T16:05:48.809Z,26.87
2018-12-18T16:08:18.173Z,30.17
2018-12-18T16:10:47.673Z,39.57
2018-12-18T16:13:17.034Z,35.97
2018-12-18T16:15:47.260Z,25.63
2018-12-18T16:18:16.628Z,23.07
2018-12-18T16:20:46.085Z,66.77
2018-12-18T16:23:15.853Z,42.23
2018-12-18T16:25:45.320Z,66.83
2018-12-18T16:28:14.681Z,36.20
2018-12-18T16:30:45.695Z,42.93
2018-12-18T16:33:16.683Z,46.30
2018-12-18T16:35:47.271Z,49.93
2018-12-18T16:38:17.228Z,45.93
2018-12-18T16:40:47.940Z,41.40
2018-12-18T16:43:17.332Z,34.00
2018-12-18T16:45:46.685Z,31.70
2018-12-18T16:48:16.277Z,24.37
2018-12-18T16:50:45.947Z,24.20
2018-12-18T16:53:15.453Z,26.20
2018-12-18T16:55:45.181Z,26.80
2018-12-18T16:58:14.581Z,30.10
2018-12-18T17:00:44.022Z,29.57
2018-12-18T17:03:15.389Z,32.53
2018-12-18T17:05:44.869Z,76.67
2018-12-18T17:08:14.429Z,94.90
2018-12-18T17:10:43.874Z,63.70
2018-12-18T17:13:13.314Z,52.27
2018-12-18T17:15:42.816Z,50.33
2018-12-18T17:18:12.541Z,49.27
2018-12-18T17:20:42.021Z,38.20
2018-12-18T17:23:11.489Z,42.70
2018-12-18T17:25:40.836Z,41.43
2018-12-18T17:28:10.252Z,37.00
2018-12-18T17:30:39.641Z,30.80
2018-12-18T17:33:09.064Z,30.63
2018-12-18T17:35:39.661Z,28.83
2018-12-18T17:38:09.325Z,30.23
2018-12-18T17:40:39.026Z,26.47
2018-12-18T17:43:08.406Z,27.03
2018-12-18T17:45:37.802Z,28.30
2018-12-18T17:48:07.474Z,37.07
2018-12-18T17:50:36.833Z,35.30
2018-12-18T17:53:06.209Z,26.97
2018-12-18T17:55:42.426Z,23.47
2018-12-18T17:58:11.881Z,26.87
2018-12-18T18:00:41.356Z,30.33
2018-12-18T18:03:10.718Z,27.67
2018-12-18T18:05:40.086Z,25.73
2018-12-18T18:08:09.473Z,25.33
2018-12-18T18:10:38.969Z,24.20
2018-12-18T18:13:08.378Z,54.07
2018-12-18T18:15:37.897Z,123.77
2018-12-18T18:18:07.385Z,85.33
2018-12-18T18:20:37.105Z,52.23
2018-12-18T18:23:06.687Z,39.97
2018-12-18T18:25:36.269Z,35.93
2018-12-18T18:28:05.624Z,31.23
2018-12-18T18:30:35.389Z,34.63
2018-12-18T18:33:04.738Z,33.53
2018-12-18T18:35:34.138Z,35.13
2018-12-18T18:38:03.785Z,45.15
2018-12-18T18:40:33.165Z,40.30
2018-12-18T18:43:02.525Z,41.80
2018-12-18T18:45:31.898Z,37.87
2018-12-18T18:48:01.294Z,33.13
2018-12-18T18:50:30.633Z,27.77
2018-12-18T18:53:00.027Z,30.90
2018-12-18T18:55:29.537Z,31.80
2018-12-18T18:57:59.048Z,30.30
2018-12-18T19:00:28.559Z,28.07
2018-12-18T19:02:58.061Z,30.10
2018-12-18T19:05:27.433Z,45.07
2018-12-18T19:07:56.844Z,93.07
2018-12-18T19:10:26.477Z,63.43
2018-12-18T19:12:58.941Z,49.85
2018-12-18T19:15:28.685Z,48.77
2018-12-18T19:17:58.361Z,45.50
2018-12-18T19:20:27.833Z,38.10
2018-12-18T19:22:57.211Z,62.77
2018-12-18T19:25:26.951Z,123.55
2018-12-18T19:27:56.347Z,95.72
2018-12-18T19:30:25.722Z,50.55
2018-12-18T19:32:55.245Z,39.67
2018-12-18T19:35:24.849Z,80.60
2018-12-18T19:37:54.335Z,79.57
2018-12-18T19:40:23.756Z,64.25
2018-12-18T19:42:53.498Z,57.65
2018-12-18T19:45:23.196Z,52.77
2018-12-18T19:47:52.725Z,66.27
2018-12-18T19:50:22.155Z,56.53
2018-12-18T19:52:51.829Z,42.78
2018-12-18T19:55:21.480Z,30.73
2018-12-18T19:57:51.087Z,31.43
2018-12-18T20:00:21.314Z,31.33
2018-12-18T20:02:51.198Z,36.37
2018-12-18T20:05:25.050Z,33.60
2018-12-18T20:07:56.189Z,33.73
2018-12-18T20:10:26.587Z,34.90
2018-12-18T20:12:58.862Z,34.53
2018-12-18T20:15:29.413Z,31.60
2018-12-18T20:17:59.036Z,25.77
2018-12-18T20:20:29.717Z,21.80
2018-12-18T20:22:59.614Z,25.27
2018-12-18T20:25:29.861Z,24.80
2018-12-18T20:27:59.493Z,70.43
2018-12-18T20:30:29.085Z,97.97
2018-12-18T20:32:58.697Z,53.73
2018-12-18T20:35:28.206Z,31.70
2018-12-18T20:37:58.857Z,32.03
2018-12-18T20:40:28.398Z,26.63
2018-12-18T20:42:57.977Z,28.43
2018-12-18T20:45:27.582Z,30.47
2018-12-18T20:47:58.113Z,26.67
2018-12-18T20:50:27.822Z,26.40
2018-12-18T20:52:58.168Z,32.30
2018-12-18T20:55:27.648Z,53.57
2018-12-18T20:57:57.033Z,104.37
2018-12-18T21:00:26.588Z,56.60
2018-12-18T21:02:56.188Z,30.30
2018-12-18T21:05:25.881Z,24.27
2018-12-18T21:07:55.841Z,25.30
2018-12-18T21:10:25.673Z,24.17
2018-12-18T21:12:59.314Z,28.83
2018-12-18T21:15:28.716Z,30.63
2018-12-18T21:17:58.213Z,33.93
2018-12-18T21:20:27.592Z,38.43
2018-12-18T21:22:57.105Z,43.73
2018-12-18T21:25:26.613Z,83.17
2018-12-18T21:27:56.139Z,109.10
2018-12-18T21:30:25.658Z,44.40
2018-12-18T21:32:55.174Z,28.70
2018-12-18T21:35:24.668Z,28.03
2018-12-18T21:37:54.284Z,25.90
2018-12-18T21:40:23.761Z,28.10
2018-12-18T21:42:53.129Z,25.33
2018-12-18T21:45:22.521Z,25.17
2018-12-18T21:47:52.009Z,23.73
2018-12-18T21:50:21.585Z,24.60
2018-12-18T21:52:51.786Z,29.87
2018-12-18T21:55:21.269Z,28.83
2018-12-18T21:57:50.634Z,27.30
2018-12-18T22:00:20.185Z,29.50
2018-12-18T22:02:49.547Z,22.60
2018-12-18T22:05:19.305Z,26.10
2018-12-18T22:07:48.673Z,57.00
2018-12-18T22:10:18.135Z,46.70
2018-12-18T22:12:47.555Z,33.47
2018-12-18T22:15:17.052Z,33.30
2018-12-18T22:17:46.450Z,29.10
2018-12-18T22:20:15.805Z,31.63
2018-12-18T22:22:45.272Z,30.50
2018-12-18T22:25:14.881Z,33.87
2018-12-18T22:27:45.273Z,29.43
2018-12-18T22:30:14.701Z,29.60
2018-12-18T22:32:44.384Z,29.10
2018-12-18T22:35:13.818Z,24.53
2018-12-18T22:37:43.301Z,27.03
2018-12-18T22:40:12.671Z,28.60
2018-12-18T22:42:41.925Z,25.73
2018-12-18T22:45:11.295Z,28.53
2018-12-18T22:47:40.655Z,25.90
2018-12-18T22:50:10.041Z,23.03
2018-12-18T22:52:40.148Z,20.17
2018-12-18T22:55:09.677Z,20.77
2018-12-18T22:57:39.137Z,22.20
2018-12-18T23:00:09.705Z,24.17
2018-12-18T23:02:39.086Z,26.30
2018-12-18T23:05:09.818Z,24.70
2018-12-18T23:07:39.309Z,26.30
2018-12-18T23:10:09.067Z,27.63
2018-12-18T23:12:38.451Z,27.50
2018-12-18T23:15:07.912Z,25.93
2018-12-18T23:17:37.282Z,30.27
2018-12-18T23:20:06.670Z,27.73
2018-12-18T23:22:36.134Z,26.47
2018-12-18T23:25:05.664Z,26.10
2018-12-18T23:27:35.163Z,24.80
2018-12-18T23:30:05.544Z,24.23
2018-12-18T23:32:34.934Z,20.77
2018-12-18T23:35:04.405Z,21.00
2018-12-18T23:37:33.865Z,23.33
2018-12-18T23:40:03.445Z,25.43
2018-12-18T23:42:32.977Z,21.83
2018-12-18T23:45:02.442Z,23.67
2018-12-18T23:47:31.914Z,22.37
2018-12-18T23:50:01.407Z,21.67
2018-12-18T23:52:30.876Z,18.73
2018-12-18T23:55:00.246Z,19.47
2018-12-18T23:57:29.709Z,20.27
2018-12-18T23:59:59.073Z,22.10
